Time;durP1;ratioP1;P1;durP2;ratioP2;P2;SDS_P1;SDS_P2;PMS_P1;PMS_P2;Temp;Humidity;BMP_temperature;BMP_pressure;BME280_temperature;BME280_humidity;BME280_pressure;Samples;Min_cycle;Max_cycle;Signal;HPM_P1;HPM_P2
2021/01/23 00:02:08;;;;;;;26.73;11.90;;;4.90;99.90;;;;;;5012408;28;20030;-60
2021/01/23 00:04:34;;;;;;;23.02;12.27;;;4.90;99.90;;;;;;5012287;28;20092;-60
2021/01/23 00:07:00;;;;;;;25.20;12.10;;;4.90;99.90;;;;;;5012050;28;20069;-59
2021/01/23 00:09:25;;;;;;;23.00;11.88;;;4.90;99.90;;;;;;5011929;28;20034;-60
2021/01/23 00:11:51;;;;;;;23.90;11.77;;;5.00;99.90;;;;;;5012265;28;20049;-60
2021/01/23 00:14:17;;;;;;;21.08;11.07;;;5.00;99.90;;;;;;5012407;28;20026;-60
2021/01/23 00:16:43;;;;;;;21.48;11.80;;;5.00;99.90;;;;;;5012113;28;20038;-59
2021/01/23 00:19:09;;;;;;;20.50;10.50;;;5.00;99.90;;;;;;5012220;28;20053;-60
2021/01/23 00:21:36;;;;;;;13.70;8.77;;;5.10;99.90;;;;;;5014401;28;20039;-59
2021/01/23 00:24:03;;;;;;;17.50;8.60;;;5.10;99.90;;;;;;5015901;28;20030;-60
2021/01/23 00:26:29;;;;;;;12.65;7.18;;;5.10;99.90;;;;;;5014737;28;20041;-60
2021/01/23 00:28:55;;;;;;;11.48;6.57;;;5.10;99.90;;;;;;5015823;28;20061;-60
2021/01/23 00:31:21;;;;;;;8.93;5.45;;;5.10;99.90;;;;;;5015971;28;20077;-60
2021/01/23 00:33:47;;;;;;;9.80;5.22;;;5.20;99.90;;;;;;5015656;28;20116;-60
2021/01/23 00:36:13;;;;;;;6.20;4.13;;;5.10;99.90;;;;;;5015538;28;20034;-59
2021/01/23 00:38:39;;;;;;;9.75;5.20;;;5.20;99.90;;;;;;5015473;28;20045;-60
2021/01/23 00:41:05;;;;;;;9.60;5.18;;;5.10;99.90;;;;;;5015750;28;20026;-59
2021/01/23 00:43:31;;;;;;;9.82;6.18;;;5.10;99.90;;;;;;5015671;28;20038;-59
2021/01/23 00:45:57;;;;;;;9.25;5.38;;;5.20;99.90;;;;;;5015399;28;20026;-61
2021/01/23 00:48:23;;;;;;;9.15;4.90;;;5.20;99.90;;;;;;5015375;28;20391;-60
2021/01/23 00:50:49;;;;;;;8.85;5.28;;;5.20;99.90;;;;;;5015300;28;20034;-60
2021/01/23 00:53:15;;;;;;;9.07;5.38;;;5.20;99.90;;;;;;5015433;28;20037;-60
2021/01/23 00:55:40;;;;;;;10.73;6.15;;;5.20;99.90;;;;;;5014937;28;20058;-61
2021/01/23 00:58:06;;;;;;;15.98;6.30;;;5.20;99.90;;;;;;5015348;28;20038;-60
2021/01/23 01:00:32;;;;;;;18.10;5.55;;;5.20;99.90;;;;;;5015144;28;20026;-60
2021/01/23 01:02:58;;;;;;;9.95;5.80;;;5.20;99.90;;;;;;5014312;28;20172;-60
2021/01/23 01:05:24;;;;;;;8.50;4.90;;;5.20;99.90;;;;;;5015450;28;20018;-61
2021/01/23 01:07:50;;;;;;;10.82;5.28;;;5.20;99.90;;;;;;5014921;28;20034;-61
2021/01/23 01:10:16;;;;;;;9.05;5.30;;;5.20;99.90;;;;;;5015298;28;20029;-60
2021/01/23 01:12:42;;;;;;;9.63;4.65;;;5.20;99.90;;;;;;5014856;28;20048;-60
2021/01/23 01:15:09;;;;;;;7.72;4.82;;;5.20;99.90;;;;;;5014913;28;20037;-60
2021/01/23 01:17:35;;;;;;;10.18;4.60;;;5.10;99.90;;;;;;5014601;28;20038;-60
2021/01/23 01:20:01;;;;;;;6.22;3.97;;;5.10;99.90;;;;;;5013697;28;20038;-60
2021/01/23 01:22:28;;;;;;;8.52;4.30;;;5.10;99.90;;;;;;5014749;28;20025;-60
2021/01/23 01:24:55;;;;;;;7.05;4.30;;;5.10;99.90;;;;;;5014799;28;20117;-60
2021/01/23 01:27:22;;;;;;;7.40;4.05;;;5.10;99.90;;;;;;5014997;28;20026;-61
2021/01/23 01:29:49;;;;;;;8.07;3.80;;;5.20;99.90;;;;;;5014606;28;20058;-60
2021/01/23 01:32:15;;;;;;;7.28;3.85;;;5.20;99.90;;;;;;5013804;28;20033;-60
2021/01/23 01:34:43;;;;;;;7.55;3.83;;;5.10;99.90;;;;;;5014422;28;20041;-60
2021/01/23 01:37:09;;;;;;;6.32;3.15;;;5.20;99.90;;;;;;5013499;28;20025;-60
2021/01/23 01:39:35;;;;;;;8.50;3.05;;;5.20;99.90;;;;;;5014363;28;20037;-60
2021/01/23 01:42:03;;;;;;;5.10;2.63;;;5.20;99.90;;;;;;5014432;28;20056;-60
2021/01/23 01:44:29;;;;;;;6.90;3.78;;;5.30;99.90;;;;;;5014467;28;20026;-60
2021/01/23 01:46:57;;;;;;;5.10;3.05;;;5.30;99.90;;;;;;5014609;28;20049;-61
2021/01/23 01:49:24;;;;;;;6.47;3.00;;;5.30;99.90;;;;;;5012959;28;20030;-60
2021/01/23 01:51:56;;;;;;;4.60;2.50;;;5.40;99.90;;;;;;5014344;28;20022;-59
2021/01/23 01:54:25;;;;;;;6.00;2.67;;;5.30;99.90;;;;;;5014261;28;20116;-60
2021/01/23 01:56:52;;;;;;;3.38;2.20;;;5.30;99.90;;;;;;5012523;28;20054;-61
2021/01/23 01:59:19;;;;;;;3.55;1.83;;;5.40;99.90;;;;;;5014133;28;20104;-60
2021/01/23 02:01:45;;;;;;;3.58;1.85;;;5.40;99.90;;;;;;5014130;28;20044;-60
2021/01/23 02:04:30;;;;;;;4.20;2.40;;;5.40;99.90;;;;;;5012905;28;20101;-60
2021/01/23 02:07:20;;;;;;;3.95;2.42;;;5.30;99.90;;;;;;5014189;28;20053;-60
2021/01/23 02:10:37;;;;;;;5.63;2.38;;;5.40;99.90;;;;;;5014006;28;20116;-60
2021/01/23 02:13:28;;;;;;;4.35;2.45;;;5.40;99.90;;;;;;5014095;28;20117;-61
2021/01/23 02:16:16;;;;;;;5.47;2.38;;;5.40;99.90;;;;;;5013888;28;20030;-61
2021/01/23 02:18:55;;;;;;;2.50;1.77;;;5.50;99.90;;;;;;5013658;28;20046;-60
2021/01/23 02:22:01;;;;;;;4.50;2.40;;;5.60;99.90;;;;;;5013843;28;20025;-60
2021/01/23 02:24:28;;;;;;;5.05;2.25;;;5.60;99.90;;;;;;5013721;28;20041;-60
2021/01/23 02:26:57;;;;;;;5.78;2.65;;;5.70;99.90;;;;;;5012151;28;20032;-60
2021/01/23 02:29:50;;;;;;;4.82;2.78;;;5.80;99.90;;;;;;5013866;28;20104;-61
2021/01/23 02:32:20;;;;;;;6.57;2.80;;;5.70;99.90;;;;;;5012414;28;20033;-60
2021/01/23 02:34:47;;;;;;;7.57;3.00;;;5.70;99.90;;;;;;5012177;28;20044;-60
2021/01/23 02:37:14;;;;;;;4.97;2.83;;;5.70;99.90;;;;;;5012113;28;20034;-60
2021/01/23 02:39:41;;;;;;;6.80;2.30;;;5.70;99.90;;;;;;5012278;28;20030;-61
2021/01/23 02:42:08;;;;;;;5.53;2.70;;;5.50;99.90;;;;;;5013368;28;20029;-59
2021/01/23 02:44:33;;;;;;;4.97;2.42;;;5.50;99.90;;;;;;5012882;28;20034;-61
2021/01/23 02:46:59;;;;;;;5.05;2.35;;;5.50;99.90;;;;;;5013300;28;20037;-61
2021/01/23 02:49:26;;;;;;;4.97;2.40;;;5.50;99.90;;;;;;5013389;28;20116;-61
2021/01/23 02:52:04;;;;;;;3.35;2.33;;;5.40;99.90;;;;;;5012164;28;20164;-61
2021/01/23 02:54:55;;;;;;;5.75;2.38;;;5.50;99.90;;;;;;5012020;28;20083;-61
2021/01/23 02:57:22;;;;;;;4.35;2.00;;;5.40;99.90;;;;;;5013369;28;20079;-60
2021/01/23 02:59:55;;;;;;;3.58;1.92;;;5.40;99.90;;;;;;5011687;28;20030;-60
2021/01/23 03:02:23;;;;;;;3.70;2.22;;;5.50;99.90;;;;;;5011976;28;20033;-61
2021/01/23 03:04:51;;;;;;;4.88;2.72;;;5.50;99.90;;;;;;5011913;28;20025;-61
2021/01/23 03:07:17;;;;;;;5.25;2.92;;;5.30;99.90;;;;;;5012919;28;20030;-60
2021/01/23 03:09:44;;;;;;;6.90;3.05;;;5.20;99.90;;;;;;5011837;28;20033;-60
2021/01/23 03:12:11;;;;;;;3.45;2.22;;;5.10;99.90;;;;;;5013128;28;20026;-60
2021/01/23 03:14:37;;;;;;;7.15;2.42;;;5.20;99.90;;;;;;5012658;28;20104;-60
2021/01/23 03:17:04;;;;;;;9.63;2.33;;;5.30;99.90;;;;;;5012859;28;20041;-60
2021/01/23 03:19:30;;;;;;;4.85;2.60;;;5.30;99.90;;;;;;5012627;28;20110;-60
2021/01/23 03:21:56;;;;;;;5.55;2.90;;;5.40;99.90;;;;;;5012675;28;20054;-60
2021/01/23 03:24:22;;;;;;;4.78;2.83;;;5.30;99.90;;;;;;5011497;28;20045;-60
2021/01/23 03:26:49;;;;;;;9.38;3.70;;;5.30;99.90;;;;;;5012467;28;20399;-60
2021/01/23 03:29:16;;;;;;;6.10;2.53;;;5.20;99.90;;;;;;5012556;28;20062;-60
2021/01/23 03:31:44;;;;;;;7.28;2.67;;;5.10;99.90;;;;;;5012491;28;20026;-60
2021/01/23 03:34:10;;;;;;;5.88;3.03;;;5.00;99.90;;;;;;5012748;28;20026;-60
2021/01/23 03:36:36;;;;;;;8.52;3.17;;;5.10;99.90;;;;;;5012330;28;20052;-60
2021/01/23 03:39:05;;;;;;;6.15;3.30;;;5.10;99.90;;;;;;5011582;28;20112;-60
2021/01/23 03:41:32;;;;;;;5.82;2.92;;;5.00;99.90;;;;;;5011243;28;20037;-60
2021/01/23 03:43:59;;;;;;;6.47;2.80;;;4.90;99.90;;;;;;5012297;28;20081;-60
2021/01/23 03:46:25;;;;;;;5.30;3.08;;;4.80;99.90;;;;;;5012548;28;20029;-60
2021/01/23 03:48:51;;;;;;;4.57;2.80;;;4.90;99.90;;;;;;5012451;28;20030;-60
2021/01/23 03:51:17;;;;;;;8.63;4.10;;;4.90;99.90;;;;;;5012329;28;20030;-60
2021/01/23 03:53:43;;;;;;;6.25;3.33;;;4.90;99.90;;;;;;5012175;28;20057;-59
2021/01/23 03:56:08;;;;;;;9.18;3.40;;;4.80;99.90;;;;;;5012896;28;20099;-60
2021/01/23 03:58:35;;;;;;;6.38;3.47;;;4.60;99.90;;;;;;5016423;28;20034;-59
2021/01/23 04:01:03;;;;;;;5.40;3.05;;;4.50;99.90;;;;;;5016250;28;20030;-59
2021/01/23 04:03:29;;;;;;;6.97;3.45;;;4.50;99.90;;;;;;5016593;28;20026;-59
2021/01/23 04:05:55;;;;;;;5.97;2.92;;;4.60;99.90;;;;;;5016355;28;20030;-59
2021/01/23 04:08:21;;;;;;;6.70;3.65;;;4.70;99.90;;;;;;5016155;28;20371;-60
2021/01/23 04:10:47;;;;;;;6.90;3.78;;;4.60;99.90;;;;;;5016217;28;20112;-59
2021/01/23 04:13:13;;;;;;;8.45;3.42;;;4.60;99.90;;;;;;5016344;28;20037;-60
2021/01/23 04:15:39;;;;;;;6.10;3.20;;;4.70;99.90;;;;;;5015828;28;20437;-59
2021/01/23 04:18:05;;;;;;;7.15;3.35;;;4.80;99.90;;;;;;5015971;28;20045;-60
2021/01/23 04:20:33;;;;;;;7.47;3.58;;;4.80;99.90;;;;;;5016296;28;20034;-60
2021/01/23 04:22:59;;;;;;;6.85;3.55;;;4.90;99.90;;;;;;5014473;28;20052;-59
2021/01/23 04:25:25;;;;;;;8.95;3.50;;;5.00;99.90;;;;;;5014594;28;20064;-59
2021/01/23 04:27:51;;;;;;;6.60;3.10;;;4.80;99.90;;;;;;5016097;28;20058;-60
2021/01/23 04:30:17;;;;;;;7.95;3.67;;;4.80;99.90;;;;;;5015743;28;20084;-59
2021/01/23 04:32:43;;;;;;;6.15;3.22;;;4.70;99.90;;;;;;5015968;28;20032;-59
2021/01/23 04:35:11;;;;;;;7.32;4.28;;;4.40;99.90;;;;;;5015715;28;20034;-59
2021/01/23 04:37:40;;;;;;;7.85;4.22;;;4.40;99.90;;;;;;5015672;28;20033;-60
2021/01/23 04:40:09;;;;;;;9.38;4.10;;;4.40;99.90;;;;;;5014501;28;20044;-59
2021/01/23 04:42:43;;;;;;;10.55;3.83;;;4.40;99.90;;;;;;5015658;28;20030;-59
2021/01/23 04:45:11;;;;;;;7.43;3.83;;;4.30;99.90;;;;;;5015630;28;20088;-59
2021/01/23 04:47:37;;;;;;;7.05;4.00;;;4.30;99.90;;;;;;5015758;28;20042;-60
2021/01/23 04:50:09;;;;;;;10.07;4.15;;;4.20;99.90;;;;;;5015595;28;20116;-59
2021/01/23 04:52:38;;;;;;;10.23;4.53;;;4.20;99.90;;;;;;5015285;28;20034;-59
2021/01/23 04:55:08;;;;;;;8.68;4.80;;;4.10;99.90;;;;;;5015294;28;20054;-59
2021/01/23 04:57:35;;;;;;;8.27;4.00;;;4.20;99.90;;;;;;5015490;28;20080;-60
2021/01/23 05:00:05;;;;;;;9.43;4.60;;;4.20;99.90;;;;;;5015130;28;20053;-60
2021/01/23 05:02:31;;;;;;;9.32;4.13;;;4.10;99.90;;;;;;5015169;28;20037;-60
2021/01/23 05:07:39;;;;;;;9.20;4.15;;;4.00;99.90;;;;;;5015320;28;20026;-60
2021/01/23 05:10:23;;;;;;;7.90;3.92;;;4.10;99.90;;;;;;5013777;28;20038;-59
2021/01/23 05:12:55;;;;;;;9.07;4.35;;;4.00;99.90;;;;;;5013680;28;20064;-59
2021/01/23 05:15:30;;;;;;;11.50;5.20;;;3.80;99.90;;;;;;5014974;28;20083;-60
2021/01/23 05:18:02;;;;;;;10.30;5.38;;;3.80;99.90;;;;;;5014799;28;20074;-59
2021/01/23 05:20:43;;;;;;;9.80;5.25;;;3.70;99.90;;;;;;5014866;28;20038;-59
2021/01/23 05:23:18;;;;;;;12.23;5.93;;;3.60;99.90;;;;;;5014786;28;20034;-59
2021/01/23 05:25:50;;;;;;;10.25;5.72;;;3.60;99.90;;;;;;5014887;28;20100;-60
2021/01/23 05:28:34;;;;;;;13.98;5.88;;;3.50;99.90;;;;;;5014964;28;20038;-60
2021/01/23 05:31:03;;;;;;;11.50;5.95;;;3.40;99.90;;;;;;5014515;28;20076;-60
2021/01/23 05:33:32;;;;;;;14.13;6.15;;;3.40;99.90;;;;;;5014971;28;20030;-60
2021/01/23 05:36:05;;;;;;;11.32;6.28;;;3.40;99.90;;;;;;5014327;28;20029;-59
2021/01/23 05:38:36;;;;;;;12.27;5.97;;;3.30;99.90;;;;;;5013543;28;20030;-60
2021/01/23 05:41:11;;;;;;;11.63;6.60;;;3.30;99.90;;;;;;5014302;28;20080;-60
2021/01/23 05:43:48;;;;;;;12.13;6.45;;;3.20;99.90;;;;;;5014786;28;20034;-59
2021/01/23 05:46:27;;;;;;;13.82;7.22;;;3.30;99.90;;;;;;5014325;28;20037;-59
2021/01/23 05:48:55;;;;;;;13.25;6.57;;;3.20;99.90;;;;;;5014626;28;20061;-59
2021/01/23 05:51:23;;;;;;;15.75;7.15;;;3.20;99.90;;;;;;5014309;28;20030;-59
2021/01/23 05:53:50;;;;;;;14.13;7.03;;;3.10;99.90;;;;;;5014208;28;20038;-59
2021/01/23 05:56:16;;;;;;;12.68;6.90;;;3.20;99.90;;;;;;5013844;28;20058;-60
2021/01/23 05:58:44;;;;;;;14.35;6.93;;;3.20;99.90;;;;;;5014155;28;20364;-59
2021/01/23 06:01:16;;;;;;;15.40;6.80;;;3.20;99.90;;;;;;5014011;28;20487;-58
2021/01/23 06:03:51;;;;;;;15.18;6.80;;;3.20;99.90;;;;;;5012754;28;20038;-59
2021/01/23 06:06:17;;;;;;;13.35;6.38;;;3.20;99.90;;;;;;5012863;28;20036;-60
2021/01/23 06:08:52;;;;;;;15.38;7.25;;;3.20;99.90;;;;;;5013967;28;20108;-59
2021/01/23 06:11:18;;;;;;;17.58;8.20;;;3.20;99.90;;;;;;5012731;28;20037;-60
2021/01/23 06:13:56;;;;;;;13.82;6.93;;;3.20;99.90;;;;;;5014062;28;20056;-60
2021/01/23 06:16:34;;;;;;;18.88;6.75;;;3.20;99.90;;;;;;5014024;28;20092;-59
2021/01/23 06:19:06;;;;;;;15.20;7.50;;;3.20;99.90;;;;;;5013113;28;20037;-59
2021/01/23 06:21:44;;;;;;;18.65;7.35;;;3.20;99.90;;;;;;5013923;28;20038;-61
2021/01/23 06:24:15;;;;;;;15.05;7.35;;;3.20;99.90;;;;;;5013591;28;20038;-60
2021/01/23 06:26:53;;;;;;;14.13;6.77;;;3.20;99.90;;;;;;5013638;28;20088;-60
2021/01/23 06:29:32;;;;;;;16.17;8.05;;;3.10;99.90;;;;;;5013632;28;20132;-60
2021/01/23 06:32:13;;;;;;;22.33;12.07;;;3.00;99.90;;;;;;5013211;28;20022;-59
2021/01/23 06:35:00;;;;;;;20.23;8.80;;;3.00;99.90;;;;;;5013542;28;20157;-60
2021/01/23 06:37:33;;;;;;;20.20;8.95;;;3.00;99.90;;;;;;5013674;28;20117;-60
2021/01/23 06:40:13;;;;;;;20.02;9.50;;;2.90;99.90;;;;;;5013187;28;20026;-61
2021/01/23 06:42:51;;;;;;;19.27;9.93;;;2.80;99.90;;;;;;5013573;28;20034;-61
2021/01/23 06:45:24;;;;;;;21.67;9.73;;;2.80;99.90;;;;;;5013500;28;20030;-60
2021/01/23 06:47:56;;;;;;;18.77;8.93;;;2.80;99.90;;;;;;5013372;28;20134;-59
2021/01/23 06:50:43;;;;;;;21.80;10.05;;;2.80;99.90;;;;;;5013434;28;20033;-60
2021/01/23 06:53:17;;;;;;;20.63;10.43;;;2.70;99.90;;;;;;5013039;28;20026;-60
2021/01/23 06:55:51;;;;;;;17.88;9.60;;;2.70;99.90;;;;;;5012909;28;20129;-60
2021/01/23 06:58:24;;;;;;;20.83;8.60;;;2.70;99.90;;;;;;5013327;28;20129;-60
2021/01/23 07:01:00;;;;;;;18.80;9.50;;;2.70;99.90;;;;;;5013299;28;20034;-60
2021/01/23 07:03:28;;;;;;;23.02;9.52;;;2.60;99.90;;;;;;5013343;28;20065;-59
2021/01/23 07:06:02;;;;;;;22.02;11.13;;;2.70;99.90;;;;;;5012868;28;20041;-60
2021/01/23 07:08:33;;;;;;;22.25;10.35;;;2.80;99.90;;;;;;5012810;28;20038;-59
2021/01/23 07:11:07;;;;;;;22.80;11.47;;;2.80;99.90;;;;;;5013143;28;20081;-59
2021/01/23 07:13:34;;;;;;;16.92;8.93;;;2.90;99.90;;;;;;5012973;28;20049;-59
2021/01/23 07:16:01;;;;;;;22.13;10.60;;;2.90;99.90;;;;;;4992749;28;20076;-59
2021/01/23 07:18:27;;;;;;;19.48;9.10;;;2.90;99.90;;;;;;4993421;28;20088;-58
2021/01/23 07:20:54;;;;;;;24.60;11.18;;;3.10;99.90;;;;;;4992884;28;20032;-60
2021/01/23 07:23:21;;;;;;;22.77;10.70;;;3.10;99.90;;;;;;4993137;28;20041;-59
2021/01/23 07:25:49;;;;;;;20.98;10.30;;;3.10;99.90;;;;;;4991886;28;20030;-61
2021/01/23 07:28:21;;;;;;;24.77;10.48;;;3.20;99.90;;;;;;4993051;28;20030;-60
2021/01/23 07:30:47;;;;;;;20.52;10.05;;;3.30;99.90;;;;;;4991006;28;20105;-60
2021/01/23 07:33:32;;;;;;;21.75;10.30;;;3.30;99.90;;;;;;4992894;28;20042;-60
2021/01/23 07:35:58;;;;;;;22.35;10.52;;;3.40;99.90;;;;;;4992558;28;20036;-60
2021/01/23 07:38:25;;;;;;;17.90;9.07;;;3.50;99.90;;;;;;4993005;28;20041;-59
2021/01/23 07:40:55;;;;;;;22.27;10.20;;;3.50;99.90;;;;;;4992744;28;20030;-59
2021/01/23 07:43:22;;;;;;;21.63;10.30;;;3.50;99.90;;;;;;4992884;28;20066;-60
2021/01/23 07:45:52;;;;;;;20.50;10.23;;;3.60;99.90;;;;;;4992531;28;20037;-59
2021/01/23 07:48:18;;;;;;;16.63;8.55;;;3.70;99.90;;;;;;4991546;28;20039;-58
2021/01/23 07:50:48;;;;;;;17.30;8.95;;;3.70;99.90;;;;;;4992573;28;20114;-57
2021/01/23 07:53:22;;;;;;;20.17;9.35;;;3.70;99.90;;;;;;5002517;28;20129;-58
2021/01/23 07:55:51;;;;;;;18.38;9.10;;;3.70;99.90;;;;;;5012581;28;20061;-58
2021/01/23 07:58:17;;;;;;;20.48;9.80;;;3.70;99.90;;;;;;5014172;28;20061;-60
2021/01/23 08:00:44;;;;;;;22.15;9.75;;;3.70;99.90;;;;;;5031774;28;20045;-63
2021/01/23 08:03:11;;;;;;;19.17;10.05;;;3.90;99.90;;;;;;5030138;28;20116;-62
2021/01/23 08:05:57;;;;;;;20.45;10.00;;;3.80;99.90;;;;;;5031015;28;20028;-63
2021/01/23 08:08:31;;;;;;;17.90;9.30;;;3.70;99.90;;;;;;5015205;28;20061;-64
2021/01/23 08:10:59;;;;;;;19.70;9.25;;;3.70;99.90;;;;;;4999634;28;20038;-63
2021/01/23 08:13:28;;;;;;;17.33;8.90;;;3.70;99.90;;;;;;5006451;28;20297;-63
2021/01/23 08:16:16;;;;;;;18.45;9.80;;;3.60;99.90;;;;;;5011594;28;20042;-62
2021/01/23 08:18:43;;;;;;;15.63;8.55;;;3.70;99.90;;;;;;5010488;28;20034;-60
2021/01/23 08:21:21;;;;;;;16.02;8.95;;;3.60;99.90;;;;;;5011982;28;20045;-62
2021/01/23 08:23:48;;;;;;;15.32;8.32;;;3.70;99.90;;;;;;5018847;28;20037;-62
2021/01/23 08:26:16;;;;;;;17.42;9.15;;;3.80;99.90;;;;;;5031419;28;20033;-62
2021/01/23 08:28:48;;;;;;;19.77;9.32;;;3.80;99.90;;;;;;5031907;28;20036;-62
2021/01/23 08:31:20;;;;;;;19.42;8.93;;;3.60;99.90;;;;;;5031697;28;20033;-62
2021/01/23 08:33:54;;;;;;;16.25;9.32;;;3.70;99.90;;;;;;5031554;28;20037;-61
2021/01/23 08:36:25;;;;;;;15.32;8.38;;;3.70;99.90;;;;;;5031319;28;20096;-61
2021/01/23 08:39:02;;;;;;;14.55;7.63;;;3.80;99.90;;;;;;5031442;28;20041;-62
2021/01/23 08:41:28;;;;;;;14.80;7.45;;;3.80;99.90;;;;;;5032472;28;20086;-62
2021/01/23 08:43:54;;;;;;;15.15;6.72;;;3.90;99.90;;;;;;5035553;28;20026;-62
2021/01/23 08:46:20;;;;;;;12.40;6.35;;;3.90;99.90;;;;;;5035181;28;20048;-62
2021/01/23 08:48:47;;;;;;;13.70;7.32;;;4.00;99.90;;;;;;5035303;28;20117;-62
2021/01/23 08:51:13;;;;;;;12.05;6.32;;;3.90;99.90;;;;;;5035188;28;20034;-62
2021/01/23 08:53:39;;;;;;;9.98;5.72;;;4.00;99.90;;;;;;5029181;28;20050;-63
2021/01/23 08:56:05;;;;;;;10.20;4.85;;;4.20;99.90;;;;;;5013612;28;20122;-63
2021/01/23 08:58:31;;;;;;;10.57;5.20;;;4.20;99.90;;;;;;5015326;28;20037;-63
2021/01/23 09:00:57;;;;;;;10.27;4.25;;;4.30;99.90;;;;;;5015221;28;20033;-63
2021/01/23 09:03:23;;;;;;;11.10;5.45;;;4.30;99.90;;;;;;5015325;28;20026;-62
2021/01/23 09:05:49;;;;;;;7.25;4.03;;;4.30;99.90;;;;;;5014941;28;20168;-62
2021/01/23 09:08:15;;;;;;;7.20;4.55;;;4.20;99.90;;;;;;5014940;28;20037;-62
2021/01/23 09:10:41;;;;;;;8.98;4.60;;;4.20;99.90;;;;;;5013896;28;20053;-62
2021/01/23 09:13:07;;;;;;;10.05;4.90;;;4.20;99.90;;;;;;5015002;28;20036;-62
2021/01/23 09:15:33;;;;;;;7.05;3.65;;;4.30;99.90;;;;;;5015113;28;20037;-62
2021/01/23 09:17:59;;;;;;;9.63;4.72;;;4.30;99.90;;;;;;5014874;28;20030;-61
2021/01/23 09:20:25;;;;;;;5.45;3.53;;;4.30;99.90;;;;;;5014977;28;20025;-63
2021/01/23 09:22:51;;;;;;;7.15;4.28;;;4.20;99.90;;;;;;5014907;28;20033;-62
2021/01/23 09:25:19;;;;;;;7.90;4.72;;;4.10;99.90;;;;;;5033417;28;20029;-62
2021/01/23 09:27:46;;;;;;;11.50;4.35;;;4.10;99.90;;;;;;5034598;28;20096;-62
2021/01/23 09:30:14;;;;;;;8.75;4.70;;;4.30;99.90;;;;;;5034142;28;20025;-63
2021/01/23 09:32:43;;;;;;;7.63;4.68;;;4.20;99.90;;;;;;5034336;28;20029;-62
2021/01/23 09:35:11;;;;;;;8.10;4.45;;;4.20;99.90;;;;;;5033082;28;20030;-64
2021/01/23 09:37:38;;;;;;;10.30;5.45;;;4.20;99.90;;;;;;5033190;28;20037;-63
2021/01/23 09:40:05;;;;;;;10.35;4.55;;;4.20;99.90;;;;;;5034077;28;20026;-63
2021/01/23 09:42:32;;;;;;;9.82;5.15;;;4.20;99.90;;;;;;5034030;28;20025;-63
2021/01/23 09:44:57;;;;;;;8.40;4.82;;;4.20;99.90;;;;;;5034241;28;20026;-62
2021/01/23 09:47:24;;;;;;;12.43;5.47;;;4.20;99.90;;;;;;5033818;28;20052;-63
2021/01/23 09:49:50;;;;;;;17.33;8.13;;;4.20;99.90;;;;;;5034224;28;20175;-63
2021/01/23 09:52:16;;;;;;;10.00;5.72;;;4.20;99.90;;;;;;5033975;28;20083;-61
2021/01/23 09:54:42;;;;;;;7.50;4.28;;;4.40;99.90;;;;;;5018799;28;20053;-62
2021/01/23 09:57:08;;;;;;;9.60;4.80;;;4.50;99.90;;;;;;5013308;28;20064;-62
2021/01/23 09:59:34;;;;;;;7.47;4.53;;;4.40;99.90;;;;;;5014201;28;20029;-63
2021/01/23 10:02:03;;;;;;;9.43;5.10;;;4.40;99.90;;;;;;5013959;28;20037;-63
2021/01/23 10:04:29;;;;;;;8.38;4.70;;;4.50;99.90;;;;;;5013966;28;20038;-63
2021/01/23 10:06:55;;;;;;;9.57;5.45;;;4.70;99.90;;;;;;5014075;28;20030;-62
2021/01/23 10:09:22;;;;;;;8.68;5.30;;;4.60;99.90;;;;;;5013605;28;20033;-62
2021/01/23 10:11:49;;;;;;;11.20;6.05;;;4.60;99.90;;;;;;5012569;28;20033;-61
2021/01/23 10:14:15;;;;;;;8.90;4.80;;;4.80;99.90;;;;;;5013955;28;20026;-61
2021/01/23 10:16:42;;;;;;;8.68;5.43;;;4.80;99.90;;;;;;5013773;28;20205;-62
2021/01/23 10:19:08;;;;;;;8.05;4.30;;;4.90;99.90;;;;;;5013751;28;20390;-62
2021/01/23 10:21:34;;;;;;;7.80;5.10;;;4.90;99.90;;;;;;5013494;28;20037;-61
2021/01/23 10:23:59;;;;;;;9.73;5.10;;;4.80;99.90;;;;;;5022022;28;20037;-61
2021/01/23 10:26:26;;;;;;;9.05;5.40;;;4.70;99.90;;;;;;5033410;28;20121;-61
2021/01/23 10:28:54;;;;;;;6.57;4.40;;;4.80;99.90;;;;;;5033393;28;20087;-62
2021/01/23 10:31:20;;;;;;;10.57;4.80;;;4.80;99.90;;;;;;5033055;28;20038;-62
2021/01/23 10:33:46;;;;;;;7.75;4.32;;;4.90;99.90;;;;;;5033307;28;20033;-62
2021/01/23 10:36:12;;;;;;;9.60;4.95;;;4.90;99.90;;;;;;5031869;28;20052;-64
2021/01/23 10:38:38;;;;;;;9.38;5.28;;;5.00;99.90;;;;;;5033078;28;20029;-61
2021/01/23 10:41:03;;;;;;;10.15;4.80;;;5.10;99.90;;;;;;5033043;28;20033;-61
2021/01/23 10:43:29;;;;;;;7.82;3.95;;;5.10;99.90;;;;;;5033096;28;20025;-61
2021/01/23 10:45:55;;;;;;;11.98;5.70;;;5.30;99.90;;;;;;5032816;28;20394;-61
2021/01/23 10:48:22;;;;;;;8.40;4.75;;;5.20;99.90;;;;;;5032674;28;20103;-63
2021/01/23 10:50:47;;;;;;;9.68;5.40;;;5.30;99.90;;;;;;5031714;28;20033;-61
2021/01/23 10:53:14;;;;;;;8.82;4.85;;;5.80;99.90;;;;;;5030501;28;20048;-62
2021/01/23 10:55:39;;;;;;;10.75;5.70;;;6.20;99.90;;;;;;5012559;28;20069;-61
2021/01/23 10:58:05;;;;;;;10.00;4.50;;;6.10;99.90;;;;;;5012812;28;20120;-61
2021/01/23 11:00:31;;;;;;;7.97;4.00;;;6.20;99.90;;;;;;5013122;28;20131;-62
2021/01/23 11:02:57;;;;;;;7.60;4.40;;;6.40;99.90;;;;;;5012924;28;20104;-61
2021/01/23 11:05:23;;;;;;;7.22;4.15;;;6.50;99.90;;;;;;5012526;28;20398;-61
2021/01/23 11:07:49;;;;;;;6.55;3.75;;;7.80;99.90;;;;;;5013024;28;20040;-62
2021/01/23 11:10:16;;;;;;;7.35;3.90;;;8.00;99.90;;;;;;5012628;28;20037;-62
2021/01/23 11:12:42;;;;;;;8.43;3.63;;;7.10;99.90;;;;;;5012756;28;20146;-62
2021/01/23 11:15:08;;;;;;;8.35;4.22;;;7.00;99.90;;;;;;5012744;28;20030;-62
2021/01/23 11:17:34;;;;;;;7.10;4.43;;;6.80;99.90;;;;;;5011638;28;20034;-62
2021/01/23 11:20:00;;;;;;;7.35;4.95;;;6.60;99.90;;;;;;5012894;28;20022;-62
2021/01/23 11:22:28;;;;;;;8.30;3.88;;;6.40;99.90;;;;;;5012600;28;20046;-62
2021/01/23 11:24:54;;;;;;;6.75;4.10;;;6.20;99.90;;;;;;5028540;28;20071;-62
2021/01/23 11:27:21;;;;;;;6.93;3.90;;;6.00;99.90;;;;;;5030969;28;20044;-62
2021/01/23 11:29:47;;;;;;;8.82;5.13;;;5.70;99.90;;;;;;5032249;28;20026;-62
2021/01/23 11:32:13;;;;;;;8.18;4.70;;;5.60;99.90;;;;;;5032382;28;20048;-62
2021/01/23 11:34:39;;;;;;;7.95;4.38;;;5.60;99.90;;;;;;5032054;28;20037;-62
2021/01/23 11:37:04;;;;;;;7.82;4.60;;;5.70;99.90;;;;;;5032152;28;20033;-62
2021/01/23 11:39:30;;;;;;;9.65;5.45;;;5.50;99.90;;;;;;5030638;28;20048;-62
2021/01/23 11:41:56;;;;;;;8.60;4.50;;;5.40;99.90;;;;;;5032314;28;20029;-62
2021/01/23 11:44:22;;;;;;;8.80;4.47;;;5.40;99.90;;;;;;5032111;28;20026;-62
2021/01/23 11:46:48;;;;;;;8.50;5.00;;;5.30;99.90;;;;;;5032256;28;20026;-63
2021/01/23 11:49:14;;;;;;;7.03;5.03;;;5.40;99.90;;;;;;5031874;28;20045;-62
2021/01/23 11:51:40;;;;;;;9.52;5.55;;;5.30;99.90;;;;;;5031853;28;20045;-62
2021/01/23 11:54:06;;;;;;;9.15;4.65;;;5.30;99.90;;;;;;5022471;28;20030;-62
2021/01/23 11:56:32;;;;;;;7.68;5.05;;;5.30;99.90;;;;;;5011637;28;20050;-62
2021/01/23 11:58:58;;;;;;;10.77;4.97;;;5.40;99.90;;;;;;5014738;28;20086;-62
2021/01/23 12:01:24;;;;;;;8.27;5.13;;;5.50;99.90;;;;;;5031965;28;20022;-63
2021/01/23 12:03:50;;;;;;;8.73;5.20;;;5.70;99.90;;;;;;5032188;28;20059;-62
2021/01/23 12:06:16;;;;;;;10.05;5.07;;;5.70;99.90;;;;;;5031762;28;20059;-61
2021/01/23 12:08:42;;;;;;;12.10;5.53;;;5.60;99.90;;;;;;5031873;28;20033;-61
2021/01/23 12:11:08;;;;;;;7.55;5.40;;;5.70;99.90;;;;;;5032003;28;20029;-61
2021/01/23 12:13:34;;;;;;;10.00;5.53;;;5.80;99.90;;;;;;5031920;28;20045;-62
2021/01/23 12:16:00;;;;;;;9.95;5.15;;;5.90;99.90;;;;;;5031818;28;20057;-62
2021/01/23 12:18:26;;;;;;;9.73;5.45;;;6.10;99.90;;;;;;5035596;28;20052;-62
2021/01/23 12:20:53;;;;;;;8.82;5.00;;;6.10;99.90;;;;;;5035765;28;20026;-62
2021/01/23 12:23:19;;;;;;;10.73;4.47;;;6.40;99.90;;;;;;5032594;28;20037;-63
2021/01/23 12:25:45;;;;;;;8.52;4.93;;;6.50;99.90;;;;;;5015662;28;20030;-62
2021/01/23 12:28:11;;;;;;;6.35;4.13;;;6.60;99.90;;;;;;5015876;28;20052;-62
2021/01/23 12:30:37;;;;;;;6.82;4.30;;;6.60;99.90;;;;;;5016036;28;20029;-61
2021/01/23 12:33:03;;;;;;;7.35;3.83;;;6.60;99.90;;;;;;5016007;28;20168;-61
2021/01/23 12:35:29;;;;;;;8.50;3.92;;;6.90;99.90;;;;;;5014350;28;20029;-62
2021/01/23 12:37:58;;;;;;;4.45;3.10;;;6.90;99.90;;;;;;5015757;28;20061;-61
2021/01/23 12:40:27;;;;;;;9.57;3.47;;;6.70;99.90;;;;;;5015557;28;20036;-61
2021/01/23 12:42:53;;;;;;;6.72;3.45;;;6.50;99.90;;;;;;5015420;28;20041;-61
2021/01/23 12:45:19;;;;;;;6.82;3.80;;;6.30;99.90;;;;;;5015413;28;20176;-61
2021/01/23 12:47:45;;;;;;;6.03;3.22;;;6.40;99.90;;;;;;5015396;28;20112;-62
2021/01/23 12:50:12;;;;;;;7.15;3.70;;;6.40;99.90;;;;;;5015539;28;20026;-62
2021/01/23 12:52:38;;;;;;;6.00;3.42;;;6.60;99.90;;;;;;5014049;28;20045;-61
2021/01/23 12:55:08;;;;;;;5.47;3.10;;;6.50;99.90;;;;;;5015112;28;20076;-61
2021/01/23 12:57:36;;;;;;;5.20;3.00;;;6.50;99.90;;;;;;5014867;28;20042;-61
2021/01/23 13:00:09;;;;;;;6.07;2.72;;;6.50;99.90;;;;;;5014947;28;20324;-61
2021/01/23 13:02:35;;;;;;;4.95;2.72;;;6.60;99.90;;;;;;5014943;28;20049;-62
2021/01/23 13:05:04;;;;;;;6.18;3.20;;;6.60;99.90;;;;;;5014972;28;20123;-62